createdAt,value
2022-11-15T00:00:54.890Z,5.52
2022-11-15T00:03:25.846Z,5.49
2022-11-15T00:05:52.598Z,5.39
2022-11-15T00:08:19.175Z,5.51
2022-11-15T00:10:58.741Z,5.56
2022-11-15T00:13:25.344Z,5.48
2022-11-15T00:15:51.832Z,5.49
2022-11-15T00:18:18.930Z,5.39
2022-11-15T00:20:45.671Z,5.39
2022-11-15T00:23:12.299Z,5.22
2022-11-15T00:25:38.750Z,4.96
2022-11-15T00:28:05.237Z,5.00
2022-11-15T00:30:32.138Z,5.01
2022-11-15T00:33:03.274Z,4.83
2022-11-15T00:35:29.738Z,4.91
2022-11-15T00:37:56.253Z,4.95
2022-11-15T00:40:22.708Z,5.18
2022-11-15T00:42:49.192Z,5.42
2022-11-15T00:45:15.642Z,5.56
2022-11-15T00:47:45.824Z,5.61
2022-11-15T00:50:15.180Z,5.70
2022-11-15T00:52:42.045Z,5.61
2022-11-15T00:55:13.800Z,5.60
2022-11-15T00:57:40.270Z,5.58
2022-11-15T01:00:07.352Z,5.60
2022-11-15T01:02:33.810Z,5.72
2022-11-15T01:05:00.257Z,5.81
2022-11-15T01:07:26.769Z,5.87
2022-11-15T01:09:53.323Z,5.80
2022-11-15T01:12:19.944Z,5.87
2022-11-15T01:14:46.402Z,5.93
2022-11-15T01:17:12.942Z,6.02
2022-11-15T01:19:39.393Z,6.11
2022-11-15T01:22:05.860Z,6.23
2022-11-15T01:24:32.315Z,6.20
2022-11-15T01:26:58.778Z,6.35
2022-11-15T01:29:25.224Z,6.46
2022-11-15T01:31:51.696Z,6.48
2022-11-15T01:34:18.148Z,6.48
2022-11-15T01:36:44.621Z,6.55
2022-11-15T01:39:11.093Z,6.58
2022-11-15T01:41:37.660Z,6.79
2022-11-15T01:44:31.912Z,6.59
2022-11-15T01:46:59.628Z,6.63
2022-11-15T01:49:28.106Z,6.59
2022-11-15T01:51:55.158Z,6.63
2022-11-15T01:54:22.375Z,6.59
2022-11-15T01:56:58.126Z,6.75
2022-11-15T01:59:24.713Z,6.66
2022-11-15T02:01:51.625Z,6.80
2022-11-15T02:04:20.461Z,6.76
2022-11-15T02:06:47.877Z,6.77
2022-11-15T02:09:14.448Z,6.78
2022-11-15T02:11:41.064Z,6.73
2022-11-15T02:14:08.244Z,6.72
2022-11-15T02:17:12.882Z,6.58
2022-11-15T02:19:57.608Z,6.80
2022-11-15T02:22:43.883Z,6.79
2022-11-15T02:25:19.221Z,6.75
2022-11-15T02:28:16.580Z,6.79
2022-11-15T02:30:42.963Z,6.75
2022-11-15T02:33:15.569Z,6.77
2022-11-15T02:35:46.703Z,6.85
2022-11-15T02:38:50.905Z,6.74
2022-11-15T02:41:32.507Z,6.78
2022-11-15T02:44:04.784Z,6.71
2022-11-15T02:46:59.340Z,6.80
2022-11-15T02:49:28.584Z,6.79
2022-11-15T02:51:56.190Z,6.88
2022-11-15T02:54:24.659Z,6.86
2022-11-15T02:56:54.364Z,6.86
2022-11-15T02:59:37.846Z,6.88
2022-11-15T03:02:28.586Z,6.90
2022-11-15T03:04:58.776Z,6.86
2022-11-15T03:07:47.087Z,6.95
2022-11-15T03:10:26.632Z,6.86
2022-11-15T03:12:58.166Z,6.93
2022-11-15T03:15:24.541Z,6.91
2022-11-15T03:17:59.295Z,7.01
2022-11-15T03:20:28.102Z,6.85
2022-11-15T03:22:56.463Z,6.75
2022-11-15T03:25:25.256Z,6.68
2022-11-15T03:27:54.682Z,6.63
2022-11-15T03:30:21.135Z,6.75
2022-11-15T03:32:50.689Z,6.69
2022-11-15T03:35:25.437Z,6.75
2022-11-15T03:38:06.917Z,6.81
2022-11-15T03:41:05.334Z,6.51
2022-11-15T03:43:39.439Z,6.39
2022-11-15T03:46:23.200Z,6.52
2022-11-15T03:49:12.909Z,6.33
2022-11-15T03:51:39.726Z,6.21
2022-11-15T03:54:06.264Z,6.19
2022-11-15T03:56:32.798Z,6.16
2022-11-15T03:58:59.337Z,5.85
2022-11-15T04:01:25.831Z,5.90
2022-11-15T04:03:52.346Z,6.00
2022-11-15T04:06:18.802Z,5.85
2022-11-15T04:08:45.264Z,5.68
2022-11-15T04:11:11.725Z,5.72
2022-11-15T04:13:38.186Z,5.47
2022-11-15T04:16:04.704Z,5.46
2022-11-15T04:18:31.166Z,5.27
2022-11-15T04:21:16.406Z,5.25
2022-11-15T04:24:01.742Z,5.18
2022-11-15T04:26:28.194Z,5.29
2022-11-15T04:29:13.223Z,5.05
2022-11-15T04:31:39.764Z,5.20
2022-11-15T04:34:06.221Z,5.19
2022-11-15T04:36:51.373Z,5.22
2022-11-15T04:39:17.877Z,5.05
2022-11-15T04:41:44.329Z,5.09
2022-11-15T04:44:10.873Z,5.08
2022-11-15T04:46:37.334Z,4.94
2022-11-15T04:49:03.797Z,4.75
2022-11-15T04:51:30.275Z,4.85
2022-11-15T04:53:56.784Z,4.74
2022-11-15T04:56:23.249Z,4.75
2022-11-15T04:58:50.528Z,4.74
2022-11-15T05:01:17.718Z,4.50
2022-11-15T05:04:03.458Z,4.34
2022-11-15T05:06:30.363Z,4.55
2022-11-15T05:08:56.868Z,4.32
2022-11-15T05:11:23.780Z,4.46
2022-11-15T05:13:50.566Z,4.40
2022-11-15T05:16:17.172Z,4.31
2022-11-15T05:18:43.629Z,4.31
2022-11-15T05:21:12.814Z,4.41
2022-11-15T05:23:39.567Z,4.29
2022-11-15T05:26:09.363Z,4.34
2022-11-15T05:28:37.435Z,4.42
2022-11-15T05:31:09.046Z,4.36
2022-11-15T05:33:36.769Z,4.41
2022-11-15T05:36:11.034Z,4.29
2022-11-15T05:38:37.545Z,4.30
2022-11-15T05:41:04.647Z,4.26
2022-11-15T05:43:33.280Z,4.30
2022-11-15T05:46:00.499Z,4.21
2022-11-15T05:48:27.023Z,4.13
2022-11-15T05:50:53.512Z,4.07
2022-11-15T05:53:21.699Z,4.22
2022-11-15T05:55:48.372Z,4.11
2022-11-15T05:58:14.878Z,4.11
2022-11-15T06:00:41.555Z,4.17
2022-11-15T06:03:08.014Z,4.13
2022-11-15T06:05:34.473Z,4.17
2022-11-15T06:08:01.105Z,4.19
2022-11-15T06:10:27.647Z,4.27
2022-11-15T06:12:58.719Z,4.31
2022-11-15T06:15:25.275Z,4.33
2022-11-15T06:17:51.920Z,4.36
2022-11-15T06:20:18.457Z,4.39
2022-11-15T06:22:44.943Z,4.44
2022-11-15T06:25:11.385Z,4.41
2022-11-15T06:27:37.844Z,4.42
2022-11-15T06:30:04.585Z,4.34
2022-11-15T06:32:31.608Z,4.33
2022-11-15T06:34:58.052Z,4.37
2022-11-15T06:37:24.532Z,4.45
2022-11-15T06:39:51.019Z,4.56
2022-11-15T06:42:17.485Z,4.68
2022-11-15T06:44:43.938Z,4.74
2022-11-15T06:47:10.675Z,4.81
2022-11-15T06:49:37.131Z,4.86
2022-11-15T06:52:03.594Z,4.90
2022-11-15T06:54:30.068Z,4.94
2022-11-15T06:56:56.535Z,4.99
2022-11-15T06:59:22.992Z,5.04
2022-11-15T07:01:50.351Z,5.06
2022-11-15T07:04:16.825Z,5.07
2022-11-15T07:06:43.281Z,5.19
2022-11-15T07:09:09.741Z,5.36
2022-11-15T07:11:36.200Z,5.41
2022-11-15T07:14:02.696Z,5.46
2022-11-15T07:16:29.144Z,5.58
2022-11-15T07:18:55.620Z,5.56
2022-11-15T07:21:27.228Z,5.59
2022-11-15T07:23:54.098Z,5.67
2022-11-15T07:26:20.552Z,5.71
2022-11-15T07:28:47.018Z,5.70
2022-11-15T07:31:13.570Z,5.71
2022-11-15T07:33:40.029Z,5.71
2022-11-15T07:36:07.501Z,5.78
2022-11-15T07:38:40.954Z,5.83
2022-11-15T07:41:08.847Z,5.84
2022-11-15T07:43:35.382Z,5.92
2022-11-15T07:46:06.661Z,6.00
2022-11-15T07:48:43.214Z,5.98
2022-11-15T07:51:15.704Z,6.03
2022-11-15T07:53:43.474Z,6.04
2022-11-15T07:56:10.131Z,6.21
2022-11-15T07:58:36.601Z,6.12
2022-11-15T08:01:06.938Z,6.17
2022-11-15T08:03:34.238Z,6.22
2022-11-15T08:06:01.097Z,6.20
2022-11-15T08:08:27.594Z,6.14
2022-11-15T08:10:54.250Z,6.23
2022-11-15T08:13:20.824Z,6.21
2022-11-15T08:15:47.313Z,6.08
2022-11-15T08:18:16.172Z,6.12
2022-11-15T08:20:43.188Z,6.13
2022-11-15T08:23:12.265Z,6.07
2022-11-15T08:25:39.215Z,6.17
2022-11-15T08:28:08.029Z,6.24
2022-11-15T08:30:43.134Z,6.30
2022-11-15T08:33:14.319Z,6.36
2022-11-15T08:35:42.020Z,6.46
2022-11-15T08:38:08.481Z,6.53
2022-11-15T08:40:34.935Z,6.50
2022-11-15T08:43:03.424Z,6.36
2022-11-15T08:45:30.882Z,6.44
2022-11-15T08:47:57.379Z,6.43
2022-11-15T08:50:23.919Z,6.50
2022-11-15T08:52:50.416Z,6.62
2022-11-15T08:55:17.734Z,6.60
2022-11-15T08:57:44.461Z,6.64
2022-11-15T09:00:12.397Z,6.69
2022-11-15T09:02:39.727Z,6.71
2022-11-15T09:05:07.137Z,6.81
2022-11-15T09:07:33.844Z,6.75
2022-11-15T09:10:00.390Z,6.67
2022-11-15T09:12:26.896Z,6.76
2022-11-15T09:14:53.593Z,6.79
2022-11-15T09:17:24.395Z,6.78
2022-11-15T09:19:51.290Z,6.79
2022-11-15T09:22:17.745Z,6.74
2022-11-15T09:24:44.217Z,6.81
2022-11-15T09:27:11.329Z,6.77
2022-11-15T09:29:37.785Z,6.85
2022-11-15T09:32:04.334Z,6.81
2022-11-15T09:34:30.867Z,6.86
2022-11-15T09:36:57.354Z,6.90
2022-11-15T09:39:23.817Z,6.89
2022-11-15T09:42:11.519Z,6.91
2022-11-15T09:44:47.190Z,6.95
2022-11-15T09:47:35.321Z,7.02
2022-11-15T09:50:07.928Z,7.06
2022-11-15T09:52:36.013Z,7.05
2022-11-15T09:55:02.524Z,7.10
2022-11-15T09:58:08.434Z,7.16
2022-11-15T10:00:52.179Z,7.18
2022-11-15T10:03:35.156Z,7.27
2022-11-15T10:06:03.774Z,7.33
2022-11-15T10:08:55.103Z,7.38
2022-11-15T10:11:38.144Z,7.47
2022-11-15T10:14:25.952Z,7.58
2022-11-15T10:17:04.790Z,7.62
2022-11-15T10:19:54.352Z,7.70
2022-11-15T10:22:36.383Z,7.77
2022-11-15T10:25:21.452Z,7.70
2022-11-15T10:27:54.400Z,7.76
2022-11-15T10:30:20.982Z,7.73
2022-11-15T10:32:48.699Z,7.77
2022-11-15T10:35:27.280Z,7.82
2022-11-15T10:38:06.087Z,7.81
2022-11-15T10:40:32.665Z,7.76
2022-11-15T10:43:27.149Z,7.87
2022-11-15T10:45:53.797Z,7.93
2022-11-15T10:48:23.733Z,7.88
2022-11-15T10:50:52.388Z,7.91
2022-11-15T10:53:24.214Z,7.92
2022-11-15T10:55:53.560Z,7.93
2022-11-15T10:58:38.065Z,7.96
2022-11-15T11:01:24.512Z,7.99
2022-11-15T11:04:08.346Z,8.04
2022-11-15T11:06:58.070Z,8.01
2022-11-15T11:09:39.172Z,8.03
2022-11-15T11:12:10.371Z,8.06
2022-11-15T11:14:38.922Z,8.12
2022-11-15T11:17:37.747Z,8.14
2022-11-15T11:20:07.208Z,8.20
2022-11-15T11:22:38.880Z,8.18
2022-11-15T11:25:26.734Z,8.20
2022-11-15T11:28:17.934Z,8.20
2022-11-15T11:31:01.787Z,8.25
2022-11-15T11:33:45.867Z,8.25
2022-11-15T11:36:19.323Z,8.33
2022-11-15T11:39:07.368Z,8.31
2022-11-15T11:41:55.159Z,8.34
2022-11-15T11:44:32.334Z,8.40
2022-11-15T11:47:11.739Z,8.30
2022-11-15T11:49:46.986Z,8.37
2022-11-15T11:52:27.912Z,8.45
2022-11-15T11:55:14.432Z,8.39
2022-11-15T11:57:59.141Z,8.37
2022-11-15T12:00:28.531Z,8.29
2022-11-15T12:03:19.943Z,8.32
2022-11-15T12:05:51.123Z,8.38
2022-11-15T12:08:23.418Z,8.48
2022-11-15T12:10:54.370Z,8.49
2022-11-15T12:13:25.481Z,8.46
2022-11-15T12:16:07.449Z,8.42
2022-11-15T12:18:35.890Z,8.39
2022-11-15T12:21:08.422Z,8.45
2022-11-15T12:23:49.875Z,8.50
2022-11-15T12:26:29.832Z,8.49
2022-11-15T12:29:08.844Z,8.56
2022-11-15T12:31:35.551Z,8.58
2022-11-15T12:34:07.318Z,8.63
2022-11-15T12:36:44.940Z,8.67
2022-11-15T12:39:12.801Z,8.64
2022-11-15T12:41:57.496Z,8.72
2022-11-15T12:44:33.151Z,8.66
2022-11-15T12:47:10.042Z,8.78
2022-11-15T12:49:36.368Z,8.84
2022-11-15T12:52:02.734Z,8.86
2022-11-15T12:54:31.686Z,8.89
2022-11-15T12:57:03.930Z,8.93
2022-11-15T12:59:50.099Z,8.96
2022-11-15T13:02:36.228Z,9.01
2022-11-15T13:05:23.769Z,8.99
2022-11-15T13:07:50.121Z,9.03
2022-11-15T13:10:16.462Z,9.13
2022-11-15T13:12:45.745Z,9.20
2022-11-15T13:15:18.172Z,9.24
2022-11-15T13:17:48.569Z,9.22
2022-11-15T13:20:17.785Z,9.27
2022-11-15T13:23:03.098Z,9.19
2022-11-15T13:26:03.791Z,9.12
2022-11-15T13:28:41.977Z,9.14
2022-11-15T13:31:38.668Z,9.11
2022-11-15T13:34:49.525Z,9.10
2022-11-15T13:37:24.280Z,9.10
2022-11-15T13:39:50.927Z,9.13
2022-11-15T13:42:21.842Z,9.12
2022-11-15T13:45:02.627Z,9.13
2022-11-15T13:47:30.281Z,9.18
2022-11-15T13:50:00.606Z,9.14
2022-11-15T13:52:31.565Z,9.10
2022-11-15T13:55:19.573Z,9.08
2022-11-15T13:57:54.997Z,9.02
2022-11-15T14:00:41.150Z,8.99
2022-11-15T14:03:28.610Z,9.04
2022-11-15T14:06:13.085Z,9.02
2022-11-15T14:08:40.921Z,9.08
2022-11-15T14:11:16.685Z,9.09
2022-11-15T14:14:08.809Z,9.09
2022-11-15T14:16:40.587Z,9.09
2022-11-15T14:19:10.224Z,9.06
2022-11-15T14:21:36.914Z,9.05
2022-11-15T14:24:20.548Z,8.98
2022-11-15T14:26:47.538Z,9.06
2022-11-15T14:29:30.679Z,9.01
2022-11-15T14:32:14.515Z,9.07
2022-11-15T14:34:40.972Z,9.06
2022-11-15T14:37:19.765Z,9.06
2022-11-15T14:39:46.226Z,9.06
2022-11-15T14:42:12.671Z,9.08
2022-11-15T14:44:42.286Z,9.10
2022-11-15T14:47:12.180Z,9.05
2022-11-15T14:49:38.659Z,9.13
2022-11-15T14:52:16.211Z,9.07
2022-11-15T14:54:42.771Z,9.05
2022-11-15T14:57:09.208Z,9.10
2022-11-15T14:59:35.653Z,9.07
2022-11-15T15:02:02.142Z,9.07
2022-11-15T15:04:28.643Z,9.10
2022-11-15T15:06:55.223Z,9.12
2022-11-15T15:09:21.780Z,9.19
2022-11-15T15:11:48.229Z,9.16
2022-11-15T15:14:15.241Z,9.17
2022-11-15T15:16:41.684Z,9.19
2022-11-15T15:19:08.161Z,9.23
2022-11-15T15:21:37.375Z,9.18
2022-11-15T15:24:04.470Z,9.23
2022-11-15T15:26:34.542Z,9.15
2022-11-15T15:29:01.132Z,9.21
2022-11-15T15:31:27.587Z,9.18
2022-11-15T15:33:54.073Z,9.21
2022-11-15T15:36:20.528Z,9.14
2022-11-15T15:38:47.767Z,9.16
2022-11-15T15:41:17.782Z,9.19
2022-11-15T15:43:44.882Z,9.16
2022-11-15T15:46:21.057Z,9.20
2022-11-15T15:48:47.868Z,9.21
2022-11-15T15:51:20.196Z,9.24
2022-11-15T15:53:48.341Z,9.23
2022-11-15T15:56:15.253Z,9.27
2022-11-15T15:58:41.730Z,9.26
2022-11-15T16:01:08.252Z,9.23
2022-11-15T16:03:35.013Z,9.20
2022-11-15T16:06:02.028Z,9.22
2022-11-15T16:08:42.445Z,9.22
2022-11-15T16:11:14.332Z,9.22
2022-11-15T16:13:40.811Z,9.26
2022-11-15T16:16:10.193Z,9.26
2022-11-15T16:18:36.636Z,9.30
2022-11-15T16:21:03.100Z,9.28
2022-11-15T16:23:29.576Z,9.30
2022-11-15T16:25:57.182Z,9.28
2022-11-15T16:28:25.883Z,9.21
2022-11-15T16:31:13.025Z,9.26
2022-11-15T16:33:40.254Z,9.30
2022-11-15T16:36:13.730Z,9.26
2022-11-15T16:38:40.212Z,9.29
2022-11-15T16:41:06.675Z,9.31
2022-11-15T16:43:33.131Z,9.28
2022-11-15T16:46:01.700Z,9.28
2022-11-15T16:48:28.579Z,9.30
2022-11-15T16:50:56.627Z,9.26
2022-11-15T16:53:23.792Z,9.20
2022-11-15T16:55:50.289Z,9.20
2022-11-15T16:58:16.747Z,9.19
2022-11-15T17:00:43.296Z,9.13
2022-11-15T17:03:10.828Z,9.00
2022-11-15T17:05:37.314Z,9.08
2022-11-15T17:08:03.775Z,9.11
2022-11-15T17:10:30.235Z,9.06
2022-11-15T17:12:56.672Z,9.05
2022-11-15T17:15:24.446Z,9.09
2022-11-15T17:17:54.681Z,9.03
2022-11-15T17:20:23.023Z,9.13
2022-11-15T17:22:49.512Z,9.06
2022-11-15T17:25:16.027Z,9.15
2022-11-15T17:27:42.511Z,9.16
2022-11-15T17:30:11.001Z,9.19
2022-11-15T17:32:37.563Z,9.20
2022-11-15T17:35:11.995Z,9.18
2022-11-15T17:37:41.466Z,9.21
2022-11-15T17:40:08.291Z,9.18
2022-11-15T17:42:34.786Z,9.17
2022-11-15T17:45:05.310Z,9.13
2022-11-15T17:47:35.897Z,9.09
2022-11-15T17:50:02.361Z,9.08
2022-11-15T17:52:28.815Z,9.06
2022-11-15T17:54:55.265Z,9.01
2022-11-15T17:57:21.713Z,9.01
2022-11-15T17:59:48.925Z,9.00
2022-11-15T18:02:15.397Z,9.02
2022-11-15T18:04:41.916Z,9.10
2022-11-15T18:07:08.486Z,9.07
2022-11-15T18:09:35.005Z,9.08
2022-11-15T18:12:01.516Z,9.12
2022-11-15T18:14:27.968Z,9.10
2022-11-15T18:16:54.964Z,9.15
2022-11-15T18:19:22.463Z,9.11
2022-11-15T18:21:58.779Z,9.10
2022-11-15T18:24:30.349Z,9.10
2022-11-15T18:26:57.454Z,9.15
2022-11-15T18:29:24.739Z,9.21
2022-11-15T18:31:55.342Z,9.28
2022-11-15T18:34:32.032Z,9.28
2022-11-15T18:36:59.066Z,9.26
2022-11-15T18:39:25.562Z,9.31
2022-11-15T18:41:52.261Z,9.40
2022-11-15T18:44:18.950Z,9.45
2022-11-15T18:46:45.632Z,9.47
2022-11-15T18:49:13.685Z,9.52
2022-11-15T18:51:41.884Z,9.52
2022-11-15T18:54:13.799Z,9.50
2022-11-15T18:56:41.113Z,9.49
2022-11-15T18:59:08.631Z,9.51
2022-11-15T19:01:37.852Z,9.51
2022-11-15T19:04:07.332Z,9.52
2022-11-15T19:06:37.760Z,9.53
2022-11-15T19:09:04.212Z,9.54
2022-11-15T19:11:32.456Z,9.54
2022-11-15T19:14:04.391Z,9.54
2022-11-15T19:16:33.251Z,9.54
2022-11-15T19:19:02.347Z,9.49
2022-11-15T19:21:30.858Z,9.47
2022-11-15T19:23:58.183Z,9.42
2022-11-15T19:26:25.499Z,9.32
2022-11-15T19:28:53.993Z,9.32
2022-11-15T19:31:21.170Z,9.22
2022-11-15T19:33:47.737Z,9.18
2022-11-15T19:36:20.100Z,9.13
2022-11-15T19:38:46.556Z,9.10
2022-11-15T19:41:17.488Z,9.07
2022-11-15T19:43:44.439Z,9.13
2022-11-15T19:46:12.229Z,9.04
2022-11-15T19:48:38.877Z,9.06
2022-11-15T19:51:07.736Z,9.05
2022-11-15T19:53:35.574Z,9.05
2022-11-15T19:56:06.957Z,9.03
2022-11-15T19:58:36.692Z,9.00
2022-11-15T20:01:08.264Z,8.94
2022-11-15T20:03:36.228Z,8.91
2022-11-15T20:06:05.350Z,8.97
2022-11-15T20:08:32.215Z,8.99
2022-11-15T20:10:59.515Z,8.96
2022-11-15T20:13:26.026Z,8.94
2022-11-15T20:15:52.892Z,8.95
2022-11-15T20:18:20.110Z,8.87
2022-11-15T20:20:47.054Z,8.89
2022-11-15T20:23:13.794Z,8.89
2022-11-15T20:25:40.283Z,8.87
2022-11-15T20:28:07.361Z,8.84
2022-11-15T20:30:34.022Z,8.79
2022-11-15T20:33:00.502Z,8.77
2022-11-15T20:35:26.943Z,8.80
2022-11-15T20:37:53.397Z,8.81
2022-11-15T20:40:19.841Z,8.74
2022-11-15T20:42:46.734Z,8.82
2022-11-15T20:45:13.201Z,8.82
2022-11-15T20:47:39.737Z,8.81
2022-11-15T20:50:35.541Z,8.73
2022-11-15T20:52:53.225Z,8.78
2022-11-15T20:55:19.755Z,8.87
2022-11-15T20:57:46.208Z,8.91
2022-11-15T21:00:12.974Z,8.91
2022-11-15T21:02:39.452Z,8.96
2022-11-15T21:05:06.412Z,8.92
2022-11-15T21:07:32.914Z,8.94
2022-11-15T21:10:18.010Z,8.97
2022-11-15T21:12:44.498Z,8.97
2022-11-15T21:15:10.945Z,8.86
2022-11-15T21:17:37.445Z,8.84
2022-11-15T21:20:04.007Z,8.84
2022-11-15T21:22:30.468Z,8.83
2022-11-15T21:24:59.294Z,8.83
2022-11-15T21:27:26.020Z,8.77
2022-11-15T21:29:52.492Z,8.81
2022-11-15T21:32:19.123Z,8.74
2022-11-15T21:34:45.581Z,8.73
2022-11-15T21:37:12.049Z,8.72
2022-11-15T21:39:38.917Z,8.71
2022-11-15T21:42:05.395Z,8.72
2022-11-15T21:44:32.007Z,8.72
2022-11-15T21:46:58.468Z,8.75
2022-11-15T21:49:24.981Z,8.74
2022-11-15T21:51:51.429Z,8.73
2022-11-15T21:54:17.971Z,8.65
2022-11-15T21:56:44.469Z,8.65
2022-11-15T21:59:10.951Z,8.63
2022-11-15T22:01:56.294Z,8.63
2022-11-15T22:04:23.991Z,8.60
2022-11-15T22:06:51.289Z,8.58
2022-11-15T22:09:17.774Z,8.61
2022-11-15T22:11:45.489Z,8.60
2022-11-15T22:14:12.491Z,8.57
2022-11-15T22:16:39.221Z,8.57
2022-11-15T22:19:05.686Z,8.58
2022-11-15T22:21:32.222Z,8.57
2022-11-15T22:23:58.674Z,8.60
2022-11-15T22:26:25.129Z,8.66
2022-11-15T22:28:51.806Z,8.66
2022-11-15T22:31:18.591Z,8.67
2022-11-15T22:33:45.246Z,8.68
2022-11-15T22:36:12.574Z,8.70
2022-11-15T22:38:39.133Z,8.67
2022-11-15T22:41:05.707Z,8.69
2022-11-15T22:43:32.293Z,8.66
2022-11-15T22:45:59.872Z,8.63
2022-11-15T22:48:29.166Z,8.60
2022-11-15T22:50:56.103Z,8.61
2022-11-15T22:53:23.006Z,8.61
2022-11-15T22:55:54.233Z,8.59
2022-11-15T22:58:21.864Z,8.60
2022-11-15T23:00:52.874Z,8.58
2022-11-15T23:03:20.165Z,8.58
2022-11-15T23:05:47.020Z,8.57
2022-11-15T23:08:13.764Z,8.56
2022-11-15T23:10:58.893Z,8.56
2022-11-15T23:13:27.019Z,8.52
2022-11-15T23:16:20.009Z,8.50
2022-11-15T23:18:46.541Z,8.49
2022-11-15T23:21:38.392Z,8.52
2022-11-15T23:24:05.258Z,8.52
2022-11-15T23:26:31.908Z,8.50
2022-11-15T23:28:58.401Z,8.50
2022-11-15T23:31:43.661Z,8.49
2022-11-15T23:34:10.303Z,8.51
2022-11-15T23:36:36.791Z,8.48
2022-11-15T23:39:03.660Z,8.47
2022-11-15T23:41:30.111Z,8.47
2022-11-15T23:43:56.580Z,8.45
2022-11-15T23:46:23.048Z,8.48
2022-11-15T23:48:49.509Z,8.45
2022-11-15T23:51:15.966Z,8.43
2022-11-15T23:53:42.792Z,8.40
2022-11-15T23:56:14.153Z,8.38
2022-11-15T23:58:41.269Z,8.41
